Time;durP1;ratioP1;P1;durP2;ratioP2;P2;SDS_P1;SDS_P2;PMS_P1;PMS_P2;Temp;Humidity;BMP_temperature;BMP_pressure;BME280_temperature;BME280_humidity;BME280_pressure;Samples;Min_cycle;Max_cycle;Signal;HPM_P1;HPM_P2
2024/01/10 00:01:12;;;;;;;13.93;6.05;;;-7.30;99.90;;;;;;4927620;28;20039;-84
2024/01/10 00:03:37;;;;;;;11.18;5.22;;;-7.20;99.90;;;;;;4943812;28;20440;-82
2024/01/10 00:06:03;;;;;;;10.32;5.43;;;-7.40;99.90;;;;;;4940560;28;20520;-78
2024/01/10 00:08:28;;;;;;;13.38;5.18;;;-7.50;99.90;;;;;;4957241;28;20043;-77
2024/01/10 00:10:54;;;;;;;12.38;6.05;;;-7.60;99.90;;;;;;4927824;28;20034;-77
2024/01/10 00:13:21;;;;;;;11.75;6.32;;;-7.70;99.90;;;;;;4929359;28;20042;-77
2024/01/10 00:15:47;;;;;;;12.90;5.78;;;-7.60;99.90;;;;;;4908459;28;20114;-77
2024/01/10 00:18:13;;;;;;;11.98;5.75;;;-7.50;99.90;;;;;;4958571;28;20501;-77
2024/01/10 00:20:39;;;;;;;10.63;5.97;;;-7.50;99.90;;;;;;4943384;28;20039;-77
2024/01/10 00:23:06;;;;;;;10.25;5.38;;;-7.30;99.90;;;;;;4924452;28;20035;-76
2024/01/10 00:25:31;;;;;;;11.38;5.65;;;-7.40;99.90;;;;;;4957961;28;20035;-77
2024/01/10 00:27:57;;;;;;;11.45;5.38;;;-7.30;99.90;;;;;;4938237;28;20066;-77
2024/01/10 00:30:22;;;;;;;12.45;5.45;;;-7.30;99.90;;;;;;4960724;28;20031;-77
2024/01/10 00:32:48;;;;;;;12.70;5.40;;;-7.00;99.90;;;;;;4927257;28;20480;-76
2024/01/10 00:35:14;;;;;;;12.75;6.10;;;-7.10;99.90;;;;;;4928069;28;20504;-77
2024/01/10 00:37:39;;;;;;;10.98;6.15;;;-7.20;99.90;;;;;;4962501;28;20033;-77
2024/01/10 00:40:08;;;;;;;17.05;5.75;;;-7.30;99.90;;;;;;4948145;28;20034;-76
2024/01/10 00:42:33;;;;;;;13.35;6.25;;;-7.30;99.90;;;;;;4947102;28;20031;-77
2024/01/10 00:44:59;;;;;;;15.60;6.25;;;-7.40;99.90;;;;;;4932536;28;20031;-77
2024/01/10 00:47:25;;;;;;;13.00;5.95;;;-7.20;99.90;;;;;;4946230;28;20027;-77
2024/01/10 00:49:51;;;;;;;11.30;5.85;;;-7.30;99.90;;;;;;4931750;28;20038;-77
2024/01/10 00:52:17;;;;;;;9.75;4.82;;;-7.30;99.90;;;;;;4914709;28;20043;-76
2024/01/10 00:54:44;;;;;;;15.20;6.05;;;-7.50;99.90;;;;;;4943561;28;20050;-76
2024/01/10 00:57:09;;;;;;;9.57;4.15;;;-7.40;99.90;;;;;;4945070;28;20030;-77
2024/01/10 00:59:35;;;;;;;8.65;5.07;;;-7.20;99.90;;;;;;4945200;28;20086;-77
2024/01/10 01:02:00;;;;;;;9.90;4.50;;;-7.10;99.90;;;;;;4931929;28;20046;-77
2024/01/10 01:04:26;;;;;;;11.27;4.88;;;-7.10;99.90;;;;;;4932459;28;20031;-77
2024/01/10 01:06:51;;;;;;;11.65;6.25;;;-7.10;99.90;;;;;;4930335;28;20027;-77
2024/01/10 01:09:18;;;;;;;16.85;5.57;;;-7.10;99.90;;;;;;4943397;28;20130;-77
2024/01/10 01:11:43;;;;;;;10.68;5.30;;;-7.10;99.90;;;;;;4911030;28;20519;-77
2024/01/10 01:14:09;;;;;;;11.88;5.15;;;-7.10;99.90;;;;;;4946803;28;20039;-77
2024/01/10 01:16:34;;;;;;;13.82;5.75;;;-7.10;99.90;;;;;;4945240;28;20038;-77
2024/01/10 01:19:00;;;;;;;15.05;6.03;;;-7.20;99.90;;;;;;4930603;28;20055;-77
2024/01/10 01:21:25;;;;;;;12.98;5.47;;;-7.20;99.90;;;;;;4946419;28;20039;-77
2024/01/10 01:23:51;;;;;;;11.55;5.35;;;-7.50;99.90;;;;;;4942552;28;20031;-77
2024/01/10 01:26:16;;;;;;;8.60;4.53;;;-7.30;99.90;;;;;;4944341;28;20484;-77
2024/01/10 01:28:42;;;;;;;11.32;4.97;;;-7.20;99.90;;;;;;4947252;28;20038;-77
2024/01/10 01:31:07;;;;;;;12.52;5.38;;;-7.20;99.90;;;;;;4960678;28;20041;-77
2024/01/10 01:33:33;;;;;;;10.93;5.00;;;-7.10;99.90;;;;;;4961225;28;20035;-77
2024/01/10 01:35:58;;;;;;;15.75;5.72;;;-7.10;99.90;;;;;;4927210;28;20089;-76
2024/01/10 01:38:24;;;;;;;13.18;5.35;;;-7.20;99.90;;;;;;4928847;28;20391;-76
2024/01/10 01:40:50;;;;;;;13.98;5.32;;;-7.10;99.90;;;;;;4942258;28;20113;-77
2024/01/10 01:43:20;;;;;;;13.23;5.85;;;-7.10;99.90;;;;;;4908399;28;20043;-77
2024/01/10 01:45:46;;;;;;;12.02;5.50;;;-7.00;99.90;;;;;;4927465;28;20028;-77
2024/01/10 01:48:11;;;;;;;11.57;5.20;;;-7.10;99.90;;;;;;4913219;28;20038;-77
2024/01/10 01:50:37;;;;;;;12.90;5.15;;;-7.10;99.90;;;;;;4962283;28;20122;-76
2024/01/10 01:53:03;;;;;;;13.40;6.15;;;-7.00;99.90;;;;;;4929172;28;20066;-76
2024/01/10 01:55:28;;;;;;;12.55;5.85;;;-7.30;99.90;;;;;;4930014;28;20031;-77
2024/01/10 01:57:54;;;;;;;15.00;5.10;;;-7.40;99.90;;;;;;4944638;28;20035;-77
2024/01/10 02:00:19;;;;;;;12.88;5.30;;;-7.40;99.90;;;;;;4927328;28;20508;-78
2024/01/10 02:02:46;;;;;;;15.80;5.65;;;-7.40;99.90;;;;;;4927998;28;20502;-77
2024/01/10 02:05:13;;;;;;;13.10;5.10;;;-7.30;99.90;;;;;;4960790;28;20773;-77
2024/01/10 02:07:39;;;;;;;13.25;5.32;;;-7.20;99.90;;;;;;4941012;28;20042;-78
2024/01/10 02:10:05;;;;;;;10.80;5.25;;;-7.30;99.90;;;;;;4926972;28;20043;-78
2024/01/10 02:12:30;;;;;;;12.80;4.90;;;-7.30;99.90;;;;;;4946573;28;20035;-77
2024/01/10 02:14:56;;;;;;;10.15;4.88;;;-7.40;99.90;;;;;;4931907;28;20035;-76
2024/01/10 02:17:21;;;;;;;12.65;5.40;;;-7.40;99.90;;;;;;4930110;28;20054;-77
2024/01/10 02:19:47;;;;;;;14.55;5.57;;;-7.40;99.90;;;;;;4960372;28;20071;-77
2024/01/10 02:22:12;;;;;;;12.60;6.07;;;-7.40;99.90;;;;;;4961330;28;20031;-78
2024/01/10 02:24:38;;;;;;;10.75;5.07;;;-7.50;99.90;;;;;;4909618;28;20042;-78
2024/01/10 02:27:04;;;;;;;11.05;4.68;;;-7.50;99.90;;;;;;4918059;28;20040;-78
2024/01/10 02:29:30;;;;;;;10.82;5.75;;;-7.50;99.90;;;;;;4959402;28;20051;-77
2024/01/10 02:31:56;;;;;;;16.33;5.70;;;-7.40;99.90;;;;;;4929896;28;20085;-77
2024/01/10 02:34:21;;;;;;;11.90;5.63;;;-7.60;99.90;;;;;;4938485;28;20058;-78
2024/01/10 02:36:47;;;;;;;15.00;6.93;;;-7.70;99.90;;;;;;4961591;28;20042;-78
2024/01/10 02:39:12;;;;;;;15.88;6.40;;;-7.80;99.90;;;;;;4927353;28;20039;-78
2024/01/10 02:41:38;;;;;;;16.75;7.47;;;-7.80;99.90;;;;;;4929777;28;20336;-78
2024/01/10 02:44:03;;;;;;;19.17;7.35;;;-7.70;99.90;;;;;;4918911;28;20693;-78
2024/01/10 02:46:29;;;;;;;17.05;7.55;;;-7.80;99.90;;;;;;4942980;28;20055;-78
2024/01/10 02:48:55;;;;;;;13.00;6.43;;;-7.90;99.90;;;;;;4927937;28;20042;-78
2024/01/10 02:51:21;;;;;;;13.63;6.03;;;-8.10;99.90;;;;;;4944216;28;20042;-78
2024/01/10 02:53:47;;;;;;;12.45;6.15;;;-8.00;99.90;;;;;;4927799;28;20038;-78
2024/01/10 02:56:12;;;;;;;13.95;6.35;;;-7.90;99.90;;;;;;4960196;28;20541;-78
2024/01/10 02:58:38;;;;;;;14.00;5.82;;;-8.00;99.90;;;;;;4928129;28;20089;-77
2024/01/10 03:01:04;;;;;;;13.75;6.00;;;-7.90;99.90;;;;;;4946453;28;20366;-77
2024/01/10 03:03:29;;;;;;;14.15;7.00;;;-7.80;99.90;;;;;;4929625;28;20027;-78
2024/01/10 03:05:55;;;;;;;11.65;5.90;;;-7.90;99.90;;;;;;4924992;28;20089;-77
2024/01/10 03:08:20;;;;;;;12.38;7.13;;;-7.90;99.90;;;;;;4927924;28;20034;-77
2024/01/10 03:10:46;;;;;;;15.23;6.60;;;-8.20;99.90;;;;;;4917147;28;20050;-77
2024/01/10 03:13:11;;;;;;;14.00;6.88;;;-8.00;99.90;;;;;;4944842;28;20041;-78
2024/01/10 03:15:37;;;;;;;14.20;6.47;;;-8.10;99.90;;;;;;4961844;28;20035;-78
2024/01/10 03:18:02;;;;;;;23.45;6.90;;;-8.20;99.90;;;;;;4962835;28;20082;-77
2024/01/10 03:20:28;;;;;;;13.57;7.07;;;-8.20;99.90;;;;;;4914950;28;20038;-78
2024/01/10 03:22:54;;;;;;;16.80;5.75;;;-8.20;99.90;;;;;;4945950;28;20035;-78
2024/01/10 03:25:19;;;;;;;14.52;6.57;;;-8.30;99.90;;;;;;4963148;28;20118;-77
2024/01/10 03:27:45;;;;;;;14.32;6.32;;;-8.20;99.90;;;;;;4933695;28;20042;-78
2024/01/10 03:30:10;;;;;;;12.73;6.28;;;-8.20;99.90;;;;;;4946130;28;20035;-78
2024/01/10 03:32:36;;;;;;;12.10;5.78;;;-8.30;99.90;;;;;;4946482;28;20093;-78
2024/01/10 03:35:01;;;;;;;13.65;6.15;;;-8.30;99.90;;;;;;4943871;28;20121;-77
2024/01/10 03:37:27;;;;;;;13.35;5.53;;;-8.30;99.90;;;;;;4962307;28;20090;-78
2024/01/10 03:39:52;;;;;;;14.57;6.00;;;-8.10;99.90;;;;;;4944195;28;20039;-78
2024/01/10 03:42:18;;;;;;;15.27;6.78;;;-8.10;99.90;;;;;;4911949;28;20033;-78
2024/01/10 03:44:43;;;;;;;14.82;6.57;;;-8.00;99.90;;;;;;4960011;28;20039;-77
2024/01/10 03:47:10;;;;;;;11.63;5.60;;;-8.00;99.90;;;;;;4933031;28;20031;-77
2024/01/10 03:49:37;;;;;;;12.02;6.28;;;-8.00;99.90;;;;;;4930536;28;20058;-78
2024/01/10 03:52:03;;;;;;;16.65;8.05;;;-8.10;99.90;;;;;;4961663;28;20043;-77
2024/01/10 03:54:28;;;;;;;15.02;6.68;;;-8.20;99.90;;;;;;4923376;29;20031;-77
2024/01/10 03:56:54;;;;;;;14.20;6.25;;;-8.40;99.90;;;;;;4924095;28;20038;-77
2024/01/10 03:59:19;;;;;;;13.40;6.50;;;-8.40;99.90;;;;;;4943207;28;20393;-78
2024/01/10 04:01:45;;;;;;;15.27;7.15;;;-8.50;99.90;;;;;;4927243;28;20039;-77
2024/01/10 04:04:11;;;;;;;16.35;7.53;;;-8.60;99.90;;;;;;4943774;28;20055;-77
2024/01/10 04:06:36;;;;;;;16.58;7.22;;;-8.70;99.90;;;;;;4959274;28;20549;-77
2024/01/10 04:09:02;;;;;;;15.38;7.50;;;-8.70;99.90;;;;;;4929598;28;20576;-77
2024/01/10 04:11:28;;;;;;;17.70;7.60;;;-8.70;99.90;;;;;;4961488;28;20374;-78
2024/01/10 04:13:53;;;;;;;15.50;6.10;;;-8.70;99.90;;;;;;4948265;28;20042;-78
2024/01/10 04:16:19;;;;;;;12.48;6.20;;;-8.30;99.90;;;;;;4922556;28;20066;-78
2024/01/10 04:18:44;;;;;;;16.95;6.22;;;-8.50;99.90;;;;;;4949259;28;20035;-78
2024/01/10 04:21:10;;;;;;;16.60;9.00;;;-8.60;99.90;;;;;;4929708;28;20089;-78
2024/01/10 04:23:35;;;;;;;17.27;8.35;;;-8.80;99.90;;;;;;4931810;28;20089;-77
2024/01/10 04:26:02;;;;;;;17.83;6.47;;;-8.70;99.90;;;;;;4946387;28;20046;-78
2024/01/10 04:28:28;;;;;;;14.00;7.43;;;-8.60;99.90;;;;;;4958485;28;20126;-77
2024/01/10 04:30:53;;;;;;;13.95;6.35;;;-8.50;99.90;;;;;;4913767;28;20114;-78
2024/01/10 04:33:19;;;;;;;14.77;7.25;;;-8.60;99.90;;;;;;4947712;28;20598;-78
2024/01/10 04:35:45;;;;;;;14.57;6.63;;;-8.40;99.90;;;;;;4962229;28;20568;-77
2024/01/10 04:38:10;;;;;;;17.05;6.30;;;-8.50;99.90;;;;;;4943453;28;20034;-78
2024/01/10 04:40:36;;;;;;;17.77;7.18;;;-8.40;99.90;;;;;;4928479;28;20065;-77
2024/01/10 04:43:01;;;;;;;18.23;7.15;;;-8.40;99.90;;;;;;4963471;28;20042;-77
2024/01/10 04:45:27;;;;;;;16.98;7.55;;;-8.40;99.90;;;;;;4925960;28;20386;-78
2024/01/10 04:47:53;;;;;;;13.18;6.60;;;-8.40;99.90;;;;;;4944890;28;20043;-77
2024/01/10 04:50:18;;;;;;;15.30;6.43;;;-8.30;99.90;;;;;;4933253;28;20485;-78
2024/01/10 04:52:44;;;;;;;17.08;6.75;;;-8.40;99.90;;;;;;4963314;28;20395;-77
2024/01/10 04:55:10;;;;;;;14.32;6.93;;;-8.40;99.90;;;;;;4945480;28;20157;-78
2024/01/10 04:57:36;;;;;;;14.75;6.45;;;-8.30;99.90;;;;;;4946905;28;20488;-78
2024/01/10 05:00:04;;;;;;;15.15;6.57;;;-8.40;99.90;;;;;;4962269;28;20038;-78
2024/01/10 05:02:30;;;;;;;15.43;6.50;;;-8.40;99.90;;;;;;4939962;28;20121;-78
2024/01/10 05:04:55;;;;;;;16.60;6.50;;;-8.40;99.90;;;;;;4944128;28;20093;-78
2024/01/10 05:07:21;;;;;;;16.65;7.45;;;-8.30;99.90;;;;;;4943428;28;20520;-78
2024/01/10 05:09:46;;;;;;;15.02;6.95;;;-8.40;99.90;;;;;;4931510;28;20487;-78
2024/01/10 05:12:12;;;;;;;17.33;6.47;;;-8.60;99.90;;;;;;4930578;28;20035;-78
2024/01/10 05:14:37;;;;;;;12.48;6.25;;;-8.50;99.90;;;;;;4961520;28;20053;-78
2024/01/10 05:17:03;;;;;;;14.60;6.78;;;-8.60;99.90;;;;;;4942720;28;20629;-77
2024/01/10 05:19:29;;;;;;;18.08;7.68;;;-8.50;99.90;;;;;;4928117;28;20769;-78
2024/01/10 05:21:54;;;;;;;19.00;7.05;;;-8.40;99.90;;;;;;4936846;28;20674;-77
2024/01/10 05:24:20;;;;;;;18.15;7.65;;;-8.40;99.90;;;;;;4930949;28;20046;-78
2024/01/10 05:26:46;;;;;;;13.93;6.22;;;-8.50;99.90;;;;;;4930417;28;20034;-78
2024/01/10 05:29:11;;;;;;;15.90;7.97;;;-8.50;99.90;;;;;;4948307;28;20058;-78
2024/01/10 05:31:37;;;;;;;17.40;7.60;;;-8.70;99.90;;;;;;4963222;28;20031;-77
2024/01/10 05:34:02;;;;;;;14.85;7.53;;;-8.70;99.90;;;;;;4948992;28;20674;-76
2024/01/10 05:36:28;;;;;;;15.07;6.53;;;-8.60;99.90;;;;;;4931796;28;20070;-77
2024/01/10 05:38:53;;;;;;;16.48;8.32;;;-8.60;99.90;;;;;;4949476;28;20070;-78
2024/01/10 05:41:19;;;;;;;20.58;7.68;;;-8.50;99.90;;;;;;4942630;28;20078;-77
2024/01/10 05:43:44;;;;;;;20.80;7.50;;;-8.50;99.90;;;;;;4911048;28;20057;-77
2024/01/10 05:46:16;;;;;;;17.45;6.85;;;-8.50;99.90;;;;;;4925691;28;20101;-78
2024/01/10 05:48:41;;;;;;;17.15;6.75;;;-8.30;99.90;;;;;;4963991;28;20461;-78
2024/01/10 05:51:07;;;;;;;16.58;6.88;;;-8.30;99.90;;;;;;4931466;28;20082;-77
2024/01/10 05:53:32;;;;;;;18.75;8.63;;;-8.30;99.90;;;;;;4963432;28;20038;-78
2024/01/10 05:55:59;;;;;;;17.67;8.75;;;-8.60;99.90;;;;;;4933027;28;20105;-78
2024/01/10 05:58:24;;;;;;;20.55;8.80;;;-8.70;99.90;;;;;;4963118;28;20106;-77
2024/01/10 06:00:50;;;;;;;22.05;7.47;;;-8.60;99.90;;;;;;4914997;28;20144;-77
2024/01/10 06:03:15;;;;;;;17.83;8.52;;;-8.60;99.90;;;;;;4907738;28;20122;-77
2024/01/10 06:05:41;;;;;;;18.08;8.43;;;-8.70;99.90;;;;;;4958936;28;20054;-77
2024/01/10 06:08:06;;;;;;;13.73;6.50;;;-8.70;99.90;;;;;;4963044;28;20035;-77
2024/01/10 06:10:32;;;;;;;17.92;8.82;;;-8.60;99.90;;;;;;4943081;28;20043;-78
2024/01/10 06:12:58;;;;;;;15.20;6.78;;;-8.60;99.90;;;;;;4929328;28;20043;-77
2024/01/10 06:15:24;;;;;;;16.42;7.18;;;-8.50;99.90;;;;;;4957126;28;21004;-78
2024/01/10 06:17:49;;;;;;;16.92;8.57;;;-8.50;99.90;;;;;;4943504;28;20126;-76
2024/01/10 06:20:15;;;;;;;16.85;7.78;;;-8.60;99.90;;;;;;4964234;28;20409;-77
2024/01/10 06:22:41;;;;;;;18.45;7.68;;;-8.50;99.90;;;;;;4960458;28;20038;-77
2024/01/10 06:25:07;;;;;;;21.00;8.02;;;-8.30;99.90;;;;;;4963313;28;20046;-77
2024/01/10 06:27:33;;;;;;;14.88;7.57;;;-8.40;99.90;;;;;;4963082;28;20043;-77
2024/01/10 06:29:58;;;;;;;20.35;8.60;;;-8.60;99.90;;;;;;4931698;28;20035;-80
2024/01/10 06:32:24;;;;;;;20.55;9.07;;;-8.60;99.90;;;;;;4948633;28;20107;-78
2024/01/10 06:34:49;;;;;;;20.52;9.02;;;-8.70;99.90;;;;;;4944845;28;20043;-79
2024/01/10 06:37:15;;;;;;;22.48;9.68;;;-8.70;99.90;;;;;;4959464;28;20027;-80
2024/01/10 06:39:41;;;;;;;19.95;6.70;;;-8.80;99.90;;;;;;4957715;28;20583;-80
2024/01/10 06:42:10;;;;;;;12.73;6.82;;;-8.40;99.90;;;;;;4941241;28;20075;-79
2024/01/10 06:44:36;;;;;;;16.05;6.82;;;-8.00;99.90;;;;;;4945433;28;20038;-80
2024/01/10 06:47:03;;;;;;;16.98;7.25;;;-8.00;99.90;;;;;;4942121;28;20042;-79
2024/01/10 06:49:29;;;;;;;19.05;7.57;;;-8.10;99.90;;;;;;4924406;28;20532;-78
2024/01/10 06:51:54;;;;;;;21.48;7.70;;;-8.30;99.90;;;;;;4910313;28;20046;-79
2024/01/10 06:54:20;;;;;;;17.00;7.47;;;-8.30;99.90;;;;;;4959178;28;20536;-80
2024/01/10 06:56:45;;;;;;;18.17;8.02;;;-8.30;99.90;;;;;;4944690;28;20026;-78
2024/01/10 06:59:11;;;;;;;22.15;9.48;;;-8.40;99.90;;;;;;4932206;28;20114;-79
2024/01/10 07:01:39;;;;;;;22.35;9.90;;;-8.40;99.90;;;;;;4936706;28;20043;-79
2024/01/10 07:04:04;;;;;;;22.27;9.32;;;-8.50;99.90;;;;;;4915444;28;20066;-78
2024/01/10 07:06:30;;;;;;;18.10;8.25;;;-8.60;99.90;;;;;;4929897;28;20507;-79
2024/01/10 07:08:56;;;;;;;18.42;8.27;;;-8.70;99.90;;;;;;4913450;28;20039;-79
2024/01/10 07:11:22;;;;;;;22.13;8.63;;;-8.60;99.90;;;;;;4957440;28;20052;-79
2024/01/10 07:13:47;;;;;;;19.77;7.68;;;-8.50;99.90;;;;;;4954627;28;20142;-79
2024/01/10 07:16:15;;;;;;;23.52;9.25;;;-8.40;99.90;;;;;;4955746;28;20370;-79
2024/01/10 07:18:41;;;;;;;22.55;8.40;;;-8.30;99.90;;;;;;4957654;28;20509;-79
2024/01/10 07:21:06;;;;;;;22.83;7.95;;;-8.30;99.90;;;;;;4942291;28;20559;-78
2024/01/10 07:23:33;;;;;;;22.90;8.38;;;-8.40;99.90;;;;;;4956997;28;20050;-79
2024/01/10 07:25:59;;;;;;;23.50;8.52;;;-8.40;99.90;;;;;;4929413;28;20031;-78
2024/01/10 07:28:24;;;;;;;22.85;9.23;;;-8.40;99.90;;;;;;4928147;28;20027;-79
2024/01/10 07:30:50;;;;;;;18.10;8.50;;;-8.40;99.90;;;;;;4944147;28;20035;-79
2024/01/10 07:33:16;;;;;;;23.98;9.30;;;-8.50;99.90;;;;;;4959243;28;20504;-78
2024/01/10 07:35:41;;;;;;;24.70;9.20;;;-8.50;99.90;;;;;;4940420;28;20053;-80
2024/01/10 07:38:10;;;;;;;23.30;9.93;;;-8.60;99.90;;;;;;4938256;28;20043;-79
2024/01/10 07:40:36;;;;;;;21.63;9.65;;;-8.60;99.90;;;;;;4956633;28;20031;-80
2024/01/10 07:43:01;;;;;;;26.65;11.63;;;-8.60;99.90;;;;;;4941899;28;20329;-79
2024/01/10 07:45:27;;;;;;;20.95;8.63;;;-8.60;99.90;;;;;;4946524;28;20027;-80
2024/01/10 07:47:52;;;;;;;22.27;8.73;;;-8.70;99.90;;;;;;4963436;28;20485;-79
2024/01/10 07:50:19;;;;;;;18.38;9.48;;;-8.60;99.90;;;;;;4947201;28;20039;-80
2024/01/10 07:52:45;;;;;;;24.88;9.38;;;-8.60;99.90;;;;;;4913000;28;20122;-79
2024/01/10 07:55:12;;;;;;;23.27;10.45;;;-8.80;99.90;;;;;;4932229;28;20551;-79
2024/01/10 07:57:38;;;;;;;21.73;10.27;;;-8.70;99.90;;;;;;4928317;28;20062;-81
2024/01/10 08:00:10;;;;;;;21.52;9.32;;;-8.60;99.90;;;;;;4963106;28;20069;-80
2024/01/10 08:02:36;;;;;;;21.58;9.38;;;-8.60;99.90;;;;;;4943988;28;20035;-80
2024/01/10 08:05:05;;;;;;;19.80;10.15;;;-8.60;99.90;;;;;;4933185;28;20035;-80
2024/01/10 08:07:32;;;;;;;22.73;9.40;;;-8.50;99.90;;;;;;4961253;28;20091;-79
2024/01/10 08:09:59;;;;;;;24.20;9.13;;;-8.50;99.90;;;;;;4946299;28;20413;-79
2024/01/10 08:12:24;;;;;;;20.55;10.05;;;-8.40;99.90;;;;;;4944815;28;20035;-79
2024/01/10 08:14:50;;;;;;;24.95;10.88;;;-8.40;99.90;;;;;;4958683;28;20035;-80
2024/01/10 08:17:16;;;;;;;24.45;11.73;;;-8.20;99.90;;;;;;4945906;28;20123;-80
2024/01/10 08:19:42;;;;;;;28.60;9.50;;;-8.30;99.90;;;;;;4959868;28;20038;-79
2024/01/10 08:22:08;;;;;;;27.25;9.85;;;-8.20;99.90;;;;;;4963062;28;20068;-80
2024/01/10 08:24:33;;;;;;;21.63;10.48;;;-8.00;99.90;;;;;;4949000;28;20031;-80
2024/01/10 08:26:59;;;;;;;27.85;10.90;;;-7.90;99.90;;;;;;4962397;28;20374;-79
2024/01/10 08:29:30;;;;;;;26.45;11.80;;;-8.00;99.90;;;;;;4962817;28;20042;-78
2024/01/10 08:31:56;;;;;;;22.58;9.88;;;-8.20;99.90;;;;;;4945650;28;20070;-79
2024/01/10 08:34:22;;;;;;;29.88;9.85;;;-8.00;99.90;;;;;;4961507;28;20039;-80
2024/01/10 08:36:50;;;;;;;16.85;6.30;;;-7.80;99.90;;;;;;4943109;28;20054;-79
2024/01/10 08:39:16;;;;;;;23.73;11.23;;;-7.50;99.90;;;;;;4933399;28;20042;-79
2024/01/10 08:41:44;;;;;;;22.10;10.40;;;-7.40;99.90;;;;;;4958414;28;20039;-79
2024/01/10 08:44:12;;;;;;;24.30;9.13;;;-7.30;99.90;;;;;;4960454;28;20062;-80
2024/01/10 08:46:38;;;;;;;23.55;10.07;;;-7.10;99.90;;;;;;4943621;28;20383;-75
2024/01/10 08:49:03;;;;;;;23.20;9.30;;;-6.90;99.90;;;;;;4942850;28;20451;-76
2024/01/10 08:51:29;;;;;;;22.02;9.63;;;-6.80;99.90;;;;;;4957444;28;20030;-77
2024/01/10 08:53:57;;;;;;;11.95;7.03;;;-6.70;99.90;;;;;;4943723;28;20527;-76
2024/01/10 08:56:23;;;;;;;22.70;9.02;;;-6.50;99.90;;;;;;4920417;28;20042;-76
2024/01/10 08:58:49;;;;;;;23.20;9.75;;;-6.60;99.90;;;;;;4928921;28;20034;-76
2024/01/10 09:01:15;;;;;;;21.95;8.75;;;-6.50;99.90;;;;;;4930818;28;20035;-76
2024/01/10 09:03:40;;;;;;;22.30;10.05;;;-6.50;99.90;;;;;;4939654;28;20485;-76
2024/01/10 09:06:07;;;;;;;22.10;11.18;;;-6.30;99.90;;;;;;4929338;28;20035;-77
2024/01/10 09:08:34;;;;;;;26.35;10.70;;;-6.40;99.90;;;;;;4930591;28;20381;-77
2024/01/10 09:10:59;;;;;;;20.27;8.38;;;-6.40;99.90;;;;;;4960483;28;20049;-76
2024/01/10 09:13:25;;;;;;;26.00;10.75;;;-6.10;99.90;;;;;;4927653;28;20501;-76
2024/01/10 09:15:50;;;;;;;26.35;11.55;;;-5.80;99.90;;;;;;4941471;28;20046;-76
2024/01/10 09:18:16;;;;;;;20.50;9.02;;;-5.80;99.90;;;;;;4932218;28;20398;-76
2024/01/10 09:20:42;;;;;;;25.75;10.95;;;-5.60;99.90;;;;;;4913678;28;20039;-77
2024/01/10 09:23:07;;;;;;;24.33;11.23;;;-5.60;99.90;;;;;;4929689;28;20401;-76
2024/01/10 09:25:33;;;;;;;24.73;11.75;;;-5.70;99.90;;;;;;4942426;28;20042;-77
2024/01/10 09:27:58;;;;;;;21.77;8.43;;;-5.70;99.90;;;;;;4957987;28;20121;-81
2024/01/10 09:30:24;;;;;;;26.42;12.15;;;-5.60;99.90;;;;;;4929325;28;20030;-79
2024/01/10 09:32:50;;;;;;;22.23;10.70;;;-5.40;99.90;;;;;;4941186;28;20043;-79
2024/01/10 09:35:15;;;;;;;29.08;12.13;;;-5.40;99.90;;;;;;4927921;28;20069;-79
2024/01/10 09:37:41;;;;;;;26.90;10.73;;;-5.30;99.90;;;;;;4942734;28;20034;-80
2024/01/10 09:40:07;;;;;;;19.67;10.00;;;-5.20;99.90;;;;;;4928338;28;20034;-79
2024/01/10 09:42:36;;;;;;;27.55;12.27;;;-4.90;99.90;;;;;;4960480;28;20165;-78
2024/01/10 09:45:04;;;;;;;25.33;12.00;;;-5.20;99.90;;;;;;4943859;28;20157;-80
2024/01/10 09:47:31;;;;;;;22.55;10.60;;;-5.00;99.90;;;;;;4930613;28;20045;-80
2024/01/10 09:49:57;;;;;;;27.75;9.40;;;-4.70;99.90;;;;;;4905625;28;20041;-80
2024/01/10 09:52:27;;;;;;;26.83;11.02;;;-4.50;99.90;;;;;;4930902;28;20062;-79
2024/01/10 09:54:56;;;;;;;27.30;11.77;;;-4.40;99.90;;;;;;4928260;28;20417;-80
2024/01/10 09:57:23;;;;;;;31.95;13.25;;;-4.30;99.90;;;;;;4929217;28;20035;-79
2024/01/10 09:59:52;;;;;;;22.73;10.07;;;-4.50;99.90;;;;;;4942996;28;20055;-79
2024/01/10 10:02:22;;;;;;;21.15;9.32;;;-4.00;99.90;;;;;;4929245;28;20402;-79
2024/01/10 10:05:07;;;;;;;34.53;13.20;;;-3.90;99.90;;;;;;4923872;28;20807;-79
2024/01/10 10:07:48;;;;;;;30.52;13.68;;;-4.00;99.90;;;;;;4942491;28;20153;-79
2024/01/10 10:10:15;;;;;;;26.20;12.07;;;-3.90;99.90;;;;;;4943122;28;20050;-79
2024/01/10 10:12:48;;;;;;;24.38;10.85;;;-3.70;99.90;;;;;;4928988;28;20027;-79
2024/01/10 10:15:18;;;;;;;27.10;12.65;;;-3.60;99.90;;;;;;4943472;28;20047;-79
2024/01/10 10:17:48;;;;;;;31.15;13.07;;;-3.40;99.90;;;;;;4958642;28;20039;-79
2024/01/10 10:20:17;;;;;;;27.23;13.82;;;-3.20;99.90;;;;;;4931538;28;20093;-79
2024/01/10 10:23:03;;;;;;;39.38;14.65;;;-3.40;99.90;;;;;;4960054;28;20034;-78
2024/01/10 10:25:30;;;;;;;25.85;9.10;;;-3.10;99.90;;;;;;4943842;28;20038;-79
2024/01/10 10:27:56;;;;;;;24.13;10.98;;;-2.80;99.90;;;;;;4928153;28;20062;-78
2024/01/10 10:30:22;;;;;;;33.60;14.27;;;-2.60;99.90;;;;;;4930346;28;20073;-78
2024/01/10 10:32:48;;;;;;;27.75;11.48;;;-2.40;99.90;;;;;;4926095;28;20054;-78
2024/01/10 10:35:13;;;;;;;27.58;11.68;;;-2.10;99.90;;;;;;4958972;28;20043;-78
2024/01/10 10:37:39;;;;;;;26.33;12.73;;;-2.00;99.90;;;;;;4941934;28;20031;-79
2024/01/10 10:40:08;;;;;;;29.33;12.25;;;-2.00;99.90;;;;;;4958605;28;20083;-79
2024/01/10 10:42:34;;;;;;;30.02;13.55;;;-2.10;99.90;;;;;;4931340;28;20550;-78
2024/01/10 10:45:04;;;;;;;30.15;11.40;;;-2.10;99.90;;;;;;4942177;28;20039;-78
2024/01/10 10:47:32;;;;;;;29.38;12.85;;;-2.10;99.90;;;;;;4941943;28;20643;-79
2024/01/10 10:49:59;;;;;;;32.85;14.65;;;-1.90;99.90;;;;;;4925962;28;20035;-78
2024/01/10 10:52:25;;;;;;;26.08;11.52;;;-1.70;99.90;;;;;;4931622;28;20043;-79
2024/01/10 10:54:55;;;;;;;34.13;14.15;;;-1.70;99.90;;;;;;4927064;28;20580;-79
2024/01/10 10:57:20;;;;;;;24.90;12.07;;;-1.60;99.90;;;;;;4929204;28;20043;-79
2024/01/10 10:59:46;;;;;;;25.25;10.23;;;-1.40;99.90;;;;;;4959739;28;21179;-79
2024/01/10 11:02:11;;;;;;;27.95;12.63;;;-1.10;99.90;;;;;;4942682;28;20039;-78
2024/01/10 11:04:37;;;;;;;26.23;11.82;;;-0.70;99.90;;;;;;4960199;28;20450;-78
2024/01/10 11:07:03;;;;;;;26.88;12.95;;;-0.40;99.90;;;;;;4908522;28;20420;-78
2024/01/10 11:09:29;;;;;;;24.02;11.38;;;-0.40;99.90;;;;;;4936488;28;20066;-79
2024/01/10 11:11:57;;;;;;;25.48;12.23;;;-0.40;99.90;;;;;;4928276;28;20701;-78
2024/01/10 11:14:34;;;;;;;26.75;10.90;;;-0.20;99.90;;;;;;4922888;28;20039;-79
2024/01/10 11:17:06;;;;;;;21.67;10.57;;;0.00;99.90;;;;;;4957387;28;20034;-78
2024/01/10 11:19:55;;;;;;;23.33;10.00;;;0.20;99.90;;;;;;4954027;28;20070;-78
2024/01/10 11:22:23;;;;;;;28.92;13.27;;;0.40;99.90;;;;;;4958317;28;20118;-79
2024/01/10 11:24:49;;;;;;;36.92;15.13;;;0.50;99.90;;;;;;4941111;28;20525;-79
2024/01/10 11:27:15;;;;;;;34.10;14.55;;;-0.10;99.90;;;;;;4911270;28;20018;-80
2024/01/10 11:29:41;;;;;;;30.42;13.65;;;-0.60;99.90;;;;;;4944025;28;20501;-79
2024/01/10 11:32:16;;;;;;;26.23;12.38;;;0.00;99.90;;;;;;4943632;28;20125;-79
2024/01/10 11:34:58;;;;;;;28.92;13.63;;;-1.20;99.90;;;;;;4956189;28;22484;-79
2024/01/10 11:37:27;;;;;;;27.40;11.50;;;-0.50;99.90;;;;;;4957776;28;20042;-79
2024/01/10 11:39:53;;;;;;;30.85;15.05;;;0.00;99.90;;;;;;4919828;28;20609;-80
2024/01/10 11:42:23;;;;;;;27.60;14.07;;;-0.50;99.90;;;;;;4962971;28;20023;-80
2024/01/10 11:44:49;;;;;;;31.85;14.52;;;-0.70;99.90;;;;;;4946336;28;20146;-80
2024/01/10 11:47:15;;;;;;;25.98;13.07;;;-0.10;99.90;;;;;;4946325;28;20097;-78
2024/01/10 11:49:40;;;;;;;26.73;13.02;;;-0.70;99.90;;;;;;4943882;28;20118;-80
2024/01/10 11:52:06;;;;;;;27.70;14.57;;;-0.20;99.90;;;;;;4929556;28;20058;-79
2024/01/10 11:54:42;;;;;;;29.67;12.82;;;0.70;99.90;;;;;;4960875;28;20035;-80
2024/01/10 11:57:11;;;;;;;32.65;16.05;;;0.90;99.90;;;;;;4942056;28;20031;-81
2024/01/10 11:59:37;;;;;;;32.80;14.98;;;0.50;99.90;;;;;;4926103;28;20512;-80
2024/01/10 12:02:04;;;;;;;27.23;13.40;;;0.00;99.90;;;;;;4911976;28;20441;-80
2024/01/10 12:04:34;;;;;;;31.50;12.43;;;0.50;99.90;;;;;;4931175;28;20117;-81
2024/01/10 12:07:02;;;;;;;38.80;16.02;;;0.90;99.90;;;;;;4946518;28;20186;-80
2024/01/10 12:09:27;;;;;;;34.25;15.43;;;0.90;99.90;;;;;;4912429;28;20058;-80
2024/01/10 12:11:53;;;;;;;27.88;12.55;;;0.90;99.90;;;;;;4942631;28;20674;-78
2024/01/10 12:14:20;;;;;;;40.20;14.70;;;0.70;99.90;;;;;;4946223;28;20043;-79
2024/01/10 12:16:46;;;;;;;30.92;17.30;;;0.20;99.90;;;;;;4944570;28;20027;-80
2024/01/10 12:19:11;;;;;;;32.60;15.48;;;0.70;99.90;;;;;;4930623;28;20508;-81
2024/01/10 12:21:37;;;;;;;30.83;15.30;;;0.50;99.90;;;;;;4900693;28;20031;-80
2024/01/10 12:24:06;;;;;;;30.95;13.57;;;0.00;99.90;;;;;;4945013;28;20034;-81
2024/01/10 12:26:32;;;;;;;28.50;15.30;;;0.50;99.90;;;;;;4946806;28;20063;-81
2024/01/10 12:28:59;;;;;;;31.65;15.43;;;-0.20;99.90;;;;;;4912751;28;20086;-80
2024/01/10 12:31:27;;;;;;;27.77;14.57;;;-0.20;99.90;;;;;;4948432;28;20034;-80